createdAt,value
2023-02-25T00:03:53.168Z,96147.22
2023-02-25T00:08:58.180Z,96138.72
2023-02-25T00:14:02.761Z,96124.41
2023-02-25T00:19:08.600Z,96117.13
2023-02-25T00:24:17.180Z,96114.81
2023-02-25T00:29:22.213Z,96129.28
2023-02-25T00:34:28.645Z,96127.69
2023-02-25T00:39:43.247Z,96117.28
2023-02-25T00:44:49.290Z,96106.28
2023-02-25T00:49:55.618Z,96093.03
2023-02-25T00:54:59.973Z,96093.38
2023-02-25T01:00:09.924Z,96088.84
2023-02-25T01:05:17.077Z,96091.81
2023-02-25T01:10:21.433Z,96074.13
2023-02-25T01:15:25.759Z,96071.38
2023-02-25T01:20:31.929Z,96059.25
2023-02-25T01:25:42.025Z,96063.34
2023-02-25T01:30:47.473Z,96063.16
2023-02-25T01:35:53.350Z,96057.44
2023-02-25T01:40:59.659Z,96059.59
2023-02-25T01:46:03.942Z,96046.50
2023-02-25T01:51:13.187Z,96048.94
2023-02-25T01:56:21.448Z,96048.56
2023-02-25T02:01:30.758Z,96045.38
2023-02-25T02:06:40.223Z,96044.13
2023-02-25T02:11:45.134Z,96035.78
2023-02-25T02:17:14.597Z,96044.06
2023-02-25T02:22:30.589Z,96030.81
2023-02-25T02:28:01.986Z,96017.56
2023-02-25T02:33:17.647Z,96023.47
2023-02-25T02:38:33.177Z,96025.56
2023-02-25T02:43:44.165Z,96030.66
2023-02-25T02:48:57.375Z,96030.22
2023-02-25T02:54:05.999Z,96038.38
2023-02-25T02:59:16.374Z,96027.97
2023-02-25T03:04:28.128Z,96028.09
2023-02-25T03:09:40.439Z,96035.38
2023-02-25T03:14:45.575Z,96031.81
2023-02-25T03:19:53.417Z,96039.00
2023-02-25T03:25:06.301Z,96034.13
2023-02-25T03:30:18.498Z,96035.91
2023-02-25T03:35:27.153Z,96035.13
2023-02-25T03:40:33.057Z,96048.19
2023-02-25T03:45:41.705Z,96063.47
2023-02-25T03:50:53.770Z,96063.38
2023-02-25T03:56:05.403Z,96065.31
2023-02-25T04:01:17.301Z,96069.28
2023-02-25T04:06:25.355Z,96062.91
2023-02-25T04:11:30.089Z,96047.03
2023-02-25T04:16:34.563Z,96051.19
2023-02-25T04:21:41.419Z,96053.06
2023-02-25T04:26:45.772Z,96048.69
2023-02-25T04:31:50.382Z,96046.03
2023-02-25T04:36:56.403Z,96041.97
2023-02-25T04:42:01.298Z,96031.75
2023-02-25T04:47:05.867Z,96030.19
2023-02-25T04:52:11.942Z,96026.97
2023-02-25T04:57:16.467Z,96011.53
2023-02-25T05:02:21.105Z,96014.97
2023-02-25T05:07:27.267Z,96014.19
2023-02-25T05:12:31.391Z,96014.47
2023-02-25T05:17:36.412Z,96022.28
2023-02-25T05:22:41.886Z,96027.44
2023-02-25T05:27:46.375Z,96028.66
2023-02-25T05:32:50.828Z,96026.16
2023-02-25T05:37:56.670Z,96032.47
2023-02-25T05:43:01.049Z,96029.56
2023-02-25T05:48:05.821Z,96035.16
2023-02-25T05:53:11.527Z,96041.16
2023-02-25T05:58:15.638Z,96039.84
2023-02-25T06:03:20.103Z,96039.56
2023-02-25T06:08:25.798Z,96040.53
2023-02-25T06:13:30.280Z,96046.66
2023-02-25T06:18:37.075Z,96054.09
2023-02-25T06:23:45.340Z,96050.13
2023-02-25T06:28:49.506Z,96048.69
2023-02-25T06:33:55.232Z,96047.28
2023-02-25T06:39:01.406Z,96052.00
2023-02-25T06:44:06.516Z,96043.38
2023-02-25T06:49:11.438Z,96046.66
2023-02-25T06:54:16.880Z,96046.31
2023-02-25T06:59:20.914Z,96033.78
2023-02-25T07:04:25.275Z,96048.69
2023-02-25T07:09:30.979Z,96047.53
2023-02-25T07:14:35.313Z,96041.22
2023-02-25T07:19:39.849Z,96044.88
2023-02-25T07:24:46.204Z,96056.31
2023-02-25T07:29:50.704Z,96044.50
2023-02-25T07:34:55.743Z,96047.63
2023-02-25T07:40:01.463Z,96058.59
2023-02-25T07:45:07.670Z,96065.41
2023-02-25T07:50:13.833Z,96067.63
2023-02-25T07:55:19.562Z,96057.72
2023-02-25T08:00:23.915Z,96054.41
2023-02-25T08:05:28.086Z,96052.44
2023-02-25T08:10:33.854Z,96051.41
2023-02-25T08:15:42.989Z,96048.47
2023-02-25T08:20:48.581Z,96036.94
2023-02-25T08:25:57.337Z,96045.47
2023-02-25T08:31:02.637Z,96042.78
2023-02-25T08:36:10.196Z,96038.75
2023-02-25T08:41:16.042Z,96053.22
2023-02-25T08:46:21.293Z,96041.72
2023-02-25T08:51:34.505Z,96038.97
2023-02-25T08:56:44.202Z,96052.97
2023-02-25T09:01:49.233Z,96057.03
2023-02-25T09:06:55.042Z,96062.81
2023-02-25T09:12:01.435Z,96057.53
2023-02-25T09:17:07.391Z,96059.53
2023-02-25T09:22:12.184Z,96056.81
2023-02-25T09:27:17.876Z,96055.69
2023-02-25T09:32:22.635Z,96057.47
2023-02-25T09:37:28.021Z,96067.81
2023-02-25T09:42:49.187Z,96060.06
2023-02-25T09:47:59.881Z,96058.25
2023-02-25T09:53:12.109Z,96064.88
2023-02-25T09:58:26.209Z,96067.94
2023-02-25T10:03:50.445Z,96062.81
2023-02-25T10:09:06.166Z,96071.94
2023-02-25T10:14:34.052Z,96074.94
2023-02-25T10:19:56.113Z,96064.66
2023-02-25T10:25:09.818Z,96072.25
2023-02-25T10:30:22.219Z,96090.91
2023-02-25T10:35:28.894Z,96082.16
2023-02-25T10:40:33.580Z,96075.22
2023-02-25T10:45:41.534Z,96070.34
2023-02-25T10:51:06.838Z,96080.72
2023-02-25T10:56:11.838Z,96086.75
2023-02-25T11:01:19.004Z,96086.88
2023-02-25T11:06:29.827Z,96092.28
2023-02-25T11:11:37.290Z,96089.56
2023-02-25T11:16:46.100Z,96092.91
2023-02-25T11:21:50.840Z,96086.50
2023-02-25T11:26:55.263Z,96095.81
2023-02-25T11:32:09.033Z,96099.56
2023-02-25T11:37:36.024Z,96094.41
2023-02-25T11:42:42.205Z,96107.13
2023-02-25T11:47:49.563Z,96116.81
2023-02-25T11:53:06.338Z,96104.06
2023-02-25T11:58:22.976Z,96112.25
2023-02-25T12:04:05.087Z,96113.81
2023-02-25T12:09:59.754Z,96119.53
2023-02-25T12:15:43.675Z,96119.91
2023-02-25T12:21:47.910Z,96117.06
2023-02-25T12:27:37.856Z,96118.72
2023-02-25T12:32:59.843Z,96112.47
2023-02-25T12:38:58.590Z,96123.38
2023-02-25T12:44:38.171Z,96129.59
2023-02-25T12:50:24.474Z,96141.50
2023-02-25T12:55:53.006Z,96157.59
2023-02-25T13:01:34.692Z,96178.50
2023-02-25T13:06:58.735Z,96163.06
2023-02-25T13:12:35.103Z,96157.91
2023-02-25T13:17:56.492Z,96165.25
2023-02-25T13:23:20.816Z,96170.03
2023-02-25T13:29:01.860Z,96187.19
2023-02-25T13:34:24.268Z,96196.81
2023-02-25T13:40:02.961Z,96193.19
2023-02-25T13:45:56.273Z,96180.75
2023-02-25T13:51:30.282Z,96190.38
2023-02-25T13:56:56.537Z,96201.03
2023-02-25T14:02:27.325Z,96201.84
2023-02-25T14:07:48.945Z,96217.97
2023-02-25T14:13:16.541Z,96235.44
2023-02-25T14:18:54.048Z,96246.66
2023-02-25T14:24:08.814Z,96257.38
2023-02-25T14:29:26.612Z,96263.72
2023-02-25T14:34:56.093Z,96257.84
2023-02-25T14:40:26.355Z,96271.38
2023-02-25T14:45:37.215Z,96275.44
2023-02-25T14:50:49.897Z,96280.75
2023-02-25T14:56:43.264Z,96280.06
2023-02-25T15:02:21.792Z,96288.25
2023-02-25T15:08:00.253Z,96302.09
2023-02-25T15:13:38.387Z,96318.00
2023-02-25T15:19:28.439Z,96316.22
2023-02-25T15:24:42.789Z,96322.69
2023-02-25T15:29:59.641Z,96336.38
2023-02-25T15:35:08.642Z,96347.88
2023-02-25T15:40:46.978Z,96356.06
2023-02-25T15:45:55.117Z,96363.13
2023-02-25T15:51:02.096Z,96362.16
2023-02-25T15:56:46.106Z,96372.13
2023-02-25T16:01:50.448Z,96373.06
2023-02-25T16:06:55.841Z,96400.56
2023-02-25T16:12:07.257Z,96403.31
2023-02-25T16:17:18.847Z,96406.06
2023-02-25T16:22:25.663Z,96418.63
2023-02-25T16:27:52.462Z,96415.09
2023-02-25T16:33:08.365Z,96433.13
2023-02-25T16:38:24.092Z,96430.88
2023-02-25T16:43:34.384Z,96423.94
2023-02-25T16:48:50.295Z,96439.53
2023-02-25T16:53:58.450Z,96446.31
2023-02-25T16:59:07.965Z,96455.44
2023-02-25T17:04:20.777Z,96468.78
2023-02-25T17:09:27.530Z,96479.41
2023-02-25T17:14:33.567Z,96471.66
2023-02-25T17:19:37.806Z,96480.84
2023-02-25T17:24:42.014Z,96491.78
2023-02-25T17:29:48.591Z,96495.78
2023-02-25T17:34:56.802Z,96507.03
2023-02-25T17:40:11.455Z,96506.56
2023-02-25T17:50:44.209Z,96516.84
2023-02-25T17:55:48.857Z,96524.09
2023-02-25T18:01:03.889Z,96534.69
2023-02-25T18:06:44.756Z,96541.00
2023-02-25T18:11:57.210Z,96551.44
2023-02-25T18:17:02.515Z,96555.94
2023-02-25T18:22:25.576Z,96566.53
2023-02-25T18:27:33.033Z,96581.47
2023-02-25T18:32:37.488Z,96580.81
2023-02-25T18:37:44.617Z,96591.13
2023-02-25T18:42:49.264Z,96602.03
2023-02-25T18:47:54.277Z,96611.66
2023-02-25T18:53:00.975Z,96618.22
2023-02-25T18:58:05.825Z,96628.84
2023-02-25T19:03:16.365Z,96636.22
2023-02-25T19:08:22.695Z,96642.81
2023-02-25T19:13:34.768Z,96653.25
2023-02-25T19:18:41.411Z,96659.66
2023-02-25T19:23:50.556Z,96671.38
2023-02-25T19:28:56.066Z,96679.38
2023-02-25T19:34:00.234Z,96684.66
2023-02-25T19:39:06.717Z,96700.22
2023-02-25T19:44:11.099Z,96712.28
2023-02-25T19:49:15.526Z,96716.72
2023-02-25T19:54:21.918Z,96727.59
2023-02-25T19:59:27.006Z,96735.41
2023-02-25T20:04:31.383Z,96739.25
2023-02-25T20:09:37.300Z,96751.63
2023-02-25T20:14:41.814Z,96756.41
2023-02-25T20:19:46.863Z,96760.53
2023-02-25T20:24:52.551Z,96779.84
2023-02-25T20:29:56.744Z,96777.56
2023-02-25T20:35:01.808Z,96786.41
2023-02-25T20:40:12.149Z,96792.81
2023-02-25T20:45:18.145Z,96804.34
2023-02-25T20:50:28.604Z,96815.94
2023-02-25T20:55:34.681Z,96815.13
2023-02-25T21:00:39.828Z,96821.88
2023-02-25T21:05:43.841Z,96826.66
2023-02-25T21:10:50.084Z,96824.88
2023-02-25T21:16:00.810Z,96824.88
2023-02-25T21:21:08.667Z,96830.00
2023-02-25T21:26:16.043Z,96841.25
2023-02-25T21:31:20.747Z,96850.84
2023-02-25T21:36:25.177Z,96863.47
2023-02-25T21:41:30.882Z,96867.06
2023-02-25T21:46:35.288Z,96872.00
2023-02-25T21:51:40.520Z,96875.63
2023-02-25T21:56:46.235Z,96885.28
2023-02-25T22:01:51.368Z,96883.28
2023-02-25T22:06:55.759Z,96892.38
2023-02-25T22:12:01.349Z,96885.13
2023-02-25T22:17:05.727Z,96889.44
2023-02-25T22:22:10.207Z,96900.94
2023-02-25T22:27:16.273Z,96910.13
2023-02-25T22:32:20.630Z,96922.00
2023-02-25T22:37:24.972Z,96927.19
2023-02-25T22:42:30.565Z,96931.91
2023-02-25T22:47:35.433Z,96951.66
2023-02-25T22:52:39.889Z,96957.19
2023-02-25T22:57:45.563Z,96966.66
2023-02-25T23:02:50.460Z,96971.94
2023-02-25T23:07:54.873Z,96985.09
2023-02-25T23:13:08.012Z,96984.06
2023-02-25T23:18:12.670Z,96993.56
2023-02-25T23:23:17.590Z,96997.47
2023-02-25T23:28:23.652Z,97006.91
2023-02-25T23:33:28.803Z,97009.34
2023-02-25T23:38:32.975Z,97022.09
2023-02-25T23:43:38.627Z,97017.97
2023-02-25T23:48:42.917Z,97031.19
2023-02-25T23:53:48.004Z,97050.25
2023-02-25T23:58:55.076Z,97056.97
